createdAt,value
2022-10-13T00:01:44.550Z,13.02
2022-10-13T00:04:11.272Z,12.99
2022-10-13T00:06:38.030Z,12.97
2022-10-13T00:09:04.773Z,12.95
2022-10-13T00:11:31.616Z,12.92
2022-10-13T00:14:00.863Z,12.90
2022-10-13T00:16:27.972Z,12.88
2022-10-13T00:18:54.897Z,12.84
2022-10-13T00:21:24.142Z,12.82
2022-10-13T00:23:52.574Z,12.81
2022-10-13T00:26:21.633Z,12.77
2022-10-13T00:28:52.484Z,12.76
2022-10-13T00:31:20.833Z,12.74
2022-10-13T00:33:49.262Z,12.71
2022-10-13T00:36:16.481Z,12.70
2022-10-13T00:38:43.735Z,12.69
2022-10-13T00:41:10.591Z,12.66
2022-10-13T00:44:00.721Z,12.65
2022-10-13T00:46:32.764Z,12.62
2022-10-13T00:49:12.111Z,12.60
2022-10-13T00:51:41.282Z,12.61
2022-10-13T00:54:10.470Z,12.60
2022-10-13T00:56:38.536Z,12.59
2022-10-13T00:59:09.662Z,12.59
2022-10-13T01:01:36.417Z,12.59
2022-10-13T01:04:03.119Z,12.57
2022-10-13T01:06:30.301Z,12.56
2022-10-13T01:08:56.981Z,12.57
2022-10-13T01:11:40.618Z,12.58
2022-10-13T01:14:17.671Z,12.60
2022-10-13T01:16:50.188Z,12.61
2022-10-13T01:19:26.088Z,12.65
2022-10-13T01:22:11.902Z,12.65
2022-10-13T01:24:43.865Z,12.66
2022-10-13T01:27:30.380Z,12.68
2022-10-13T01:30:10.650Z,12.68
2022-10-13T01:32:48.876Z,12.69
2022-10-13T01:35:17.925Z,12.71
2022-10-13T01:37:53.967Z,12.72
2022-10-13T01:40:40.726Z,12.74
2022-10-13T01:43:18.165Z,12.75
2022-10-13T01:45:50.909Z,12.77
2022-10-13T01:48:18.019Z,12.78
2022-10-13T01:50:45.580Z,12.79
2022-10-13T01:53:13.796Z,12.79
2022-10-13T01:55:51.913Z,12.79
2022-10-13T01:58:18.687Z,12.80
2022-10-13T02:00:55.534Z,12.78
2022-10-13T02:03:27.845Z,12.78
2022-10-13T02:06:13.321Z,12.78
2022-10-13T02:08:45.739Z,12.76
2022-10-13T02:11:17.516Z,12.75
2022-10-13T02:14:04.081Z,12.76
2022-10-13T02:16:42.130Z,12.77
2022-10-13T02:19:12.020Z,12.76
2022-10-13T02:21:39.328Z,12.75
2022-10-13T02:24:06.804Z,12.74
2022-10-13T02:26:34.479Z,12.74
2022-10-13T02:29:08.455Z,12.71
2022-10-13T02:31:35.338Z,12.69
2022-10-13T02:34:02.047Z,12.67
2022-10-13T02:36:28.749Z,12.67
2022-10-13T02:38:55.427Z,12.68
2022-10-13T02:41:22.156Z,12.69
2022-10-13T02:43:48.871Z,12.70
2022-10-13T02:46:15.602Z,12.71
2022-10-13T02:48:42.319Z,12.73
2022-10-13T02:51:09.016Z,12.74
2022-10-13T02:53:35.709Z,12.76
2022-10-13T02:56:02.446Z,12.77
2022-10-13T02:58:29.152Z,12.78
2022-10-13T03:01:05.566Z,12.78
2022-10-13T03:03:32.318Z,12.80
2022-10-13T03:06:02.694Z,12.80
2022-10-13T03:08:29.701Z,12.81
2022-10-13T03:10:57.450Z,12.81
2022-10-13T03:13:24.165Z,12.80
2022-10-13T03:15:50.866Z,12.79
2022-10-13T03:18:17.605Z,12.77
2022-10-13T03:20:44.297Z,12.76
2022-10-13T03:23:10.980Z,12.74
2022-10-13T03:25:38.730Z,12.72
2022-10-13T03:28:05.441Z,12.71
2022-10-13T03:30:32.181Z,12.72
2022-10-13T03:32:58.905Z,12.72
2022-10-13T03:35:25.622Z,12.71
2022-10-13T03:37:52.370Z,12.73
2022-10-13T03:40:19.087Z,12.75
2022-10-13T03:42:45.827Z,12.76
2022-10-13T03:45:12.857Z,12.78
2022-10-13T03:47:39.585Z,12.80
2022-10-13T03:50:06.864Z,12.82
2022-10-13T03:52:33.584Z,12.84
2022-10-13T03:55:01.189Z,12.86
2022-10-13T03:57:27.901Z,12.89
2022-10-13T03:59:56.525Z,12.90
2022-10-13T04:02:23.789Z,12.92
2022-10-13T04:04:50.501Z,12.94
2022-10-13T04:07:17.196Z,12.96
2022-10-13T04:09:43.935Z,12.97
2022-10-13T04:12:10.645Z,12.98
2022-10-13T04:14:37.352Z,13.01
2022-10-13T04:17:04.057Z,13.02
2022-10-13T04:19:30.745Z,13.03
2022-10-13T04:21:57.477Z,13.04
2022-10-13T04:24:24.233Z,13.06
2022-10-13T04:26:50.953Z,13.05
2022-10-13T04:29:17.635Z,13.06
2022-10-13T04:31:44.390Z,13.07
2022-10-13T04:34:12.114Z,13.08
2022-10-13T04:36:38.948Z,13.08
2022-10-13T04:39:05.629Z,13.09
2022-10-13T04:41:32.319Z,13.10
2022-10-13T04:44:02.171Z,13.09
2022-10-13T04:46:28.868Z,13.09
2022-10-13T04:48:55.628Z,13.11
2022-10-13T04:51:24.153Z,13.11
2022-10-13T04:53:56.134Z,13.11
2022-10-13T04:56:23.209Z,13.12
2022-10-13T04:58:50.192Z,13.12
2022-10-13T05:01:22.211Z,13.10
2022-10-13T05:03:56.331Z,13.10
2022-10-13T05:06:26.161Z,13.10
2022-10-13T05:08:52.922Z,13.08
2022-10-13T05:11:20.456Z,13.07
2022-10-13T05:13:47.890Z,13.07
2022-10-13T05:16:17.070Z,13.06
2022-10-13T05:18:44.319Z,13.05
2022-10-13T05:21:13.504Z,13.06
2022-10-13T05:23:40.509Z,13.07
2022-10-13T05:26:10.145Z,13.08
2022-10-13T05:28:37.581Z,13.08
2022-10-13T05:31:15.472Z,13.11
2022-10-13T05:33:42.956Z,13.10
2022-10-13T05:36:11.969Z,13.11
2022-10-13T05:38:38.870Z,13.12
2022-10-13T05:41:07.626Z,13.12
2022-10-13T05:43:34.743Z,13.12
2022-10-13T05:46:01.788Z,13.11
2022-10-13T05:48:29.087Z,13.11
2022-10-13T05:50:58.080Z,13.12
2022-10-13T05:53:25.973Z,13.11
2022-10-13T05:55:53.391Z,13.11
2022-10-13T05:58:20.229Z,13.12
2022-10-13T06:00:47.059Z,13.14
2022-10-13T06:03:16.263Z,13.16
2022-10-13T06:05:45.125Z,13.18
2022-10-13T06:08:11.853Z,13.19
2022-10-13T06:10:38.582Z,13.21
2022-10-13T06:13:05.293Z,13.24
2022-10-13T06:15:32.745Z,13.28
2022-10-13T06:17:59.491Z,13.30
2022-10-13T06:20:29.994Z,13.33
2022-10-13T06:22:56.839Z,13.35
2022-10-13T06:25:23.563Z,13.38
2022-10-13T06:27:50.329Z,13.42
2022-10-13T06:30:17.071Z,13.47
2022-10-13T06:32:43.775Z,13.49
2022-10-13T06:35:10.456Z,13.55
2022-10-13T06:37:37.178Z,13.59
2022-10-13T06:40:04.380Z,13.62
2022-10-13T06:42:31.798Z,13.66
2022-10-13T06:44:58.547Z,13.71
2022-10-13T06:47:25.375Z,13.75
2022-10-13T06:49:52.112Z,13.78
2022-10-13T06:52:19.145Z,13.82
2022-10-13T06:54:46.122Z,13.84
2022-10-13T06:57:12.884Z,13.85
2022-10-13T06:59:39.589Z,13.89
2022-10-13T07:02:06.542Z,13.92
2022-10-13T07:04:33.310Z,13.96
2022-10-13T07:07:00.038Z,13.98
2022-10-13T07:09:27.217Z,14.00
2022-10-13T07:11:54.018Z,14.04
2022-10-13T07:14:20.735Z,14.08
2022-10-13T07:16:48.449Z,14.13
2022-10-13T07:19:15.183Z,14.15
2022-10-13T07:21:41.929Z,14.23
2022-10-13T07:24:10.036Z,14.27
2022-10-13T07:26:36.796Z,14.31
2022-10-13T07:29:03.714Z,14.38
2022-10-13T07:31:30.475Z,14.42
2022-10-13T07:33:58.978Z,14.48
2022-10-13T07:36:25.947Z,14.51
2022-10-13T07:38:52.642Z,14.55
2022-10-13T07:41:20.255Z,14.58
2022-10-13T07:43:46.989Z,14.62
2022-10-13T07:46:14.209Z,14.69
2022-10-13T07:48:41.155Z,14.77
2022-10-13T07:51:11.204Z,14.86
2022-10-13T07:53:38.702Z,14.96
2022-10-13T07:56:07.523Z,15.05
2022-10-13T07:58:38.077Z,15.16
2022-10-13T08:01:05.711Z,15.30
2022-10-13T08:03:32.837Z,15.45
2022-10-13T08:06:00.586Z,15.61
2022-10-13T08:08:27.780Z,15.78
2022-10-13T08:10:54.988Z,15.92
2022-10-13T08:13:21.825Z,16.06
2022-10-13T08:15:48.579Z,16.19
2022-10-13T08:18:15.638Z,16.31
2022-10-13T08:20:44.215Z,16.41
2022-10-13T08:23:12.258Z,16.48
2022-10-13T08:25:42.879Z,16.55
2022-10-13T08:28:18.915Z,16.64
2022-10-13T08:30:46.081Z,16.67
2022-10-13T08:33:13.372Z,16.71
2022-10-13T08:35:40.366Z,16.79
2022-10-13T08:38:07.604Z,16.87
2022-10-13T08:40:34.606Z,16.96
2022-10-13T08:43:06.020Z,17.10
2022-10-13T08:45:41.761Z,17.19
2022-10-13T08:48:17.142Z,17.31
2022-10-13T08:50:45.877Z,17.44
2022-10-13T08:53:37.403Z,17.56
2022-10-13T08:56:23.073Z,17.65
2022-10-13T08:58:50.677Z,17.72
2022-10-13T09:01:20.614Z,17.78
2022-10-13T09:04:04.566Z,17.80
2022-10-13T09:06:39.047Z,17.83
2022-10-13T09:09:08.629Z,17.82
2022-10-13T09:11:41.596Z,17.79
2022-10-13T09:14:10.699Z,17.75
2022-10-13T09:16:43.482Z,17.71
2022-10-13T09:19:28.676Z,17.68
2022-10-13T09:22:23.656Z,17.69
2022-10-13T09:25:09.177Z,17.69
2022-10-13T09:27:52.631Z,17.72
2022-10-13T09:30:42.312Z,17.81
2022-10-13T09:33:09.058Z,17.92
2022-10-13T09:35:37.137Z,18.00
2022-10-13T09:38:05.105Z,18.07
2022-10-13T09:40:32.350Z,18.12
2022-10-13T09:43:01.251Z,18.18
2022-10-13T09:45:30.301Z,18.21
2022-10-13T09:48:04.336Z,18.24
2022-10-13T09:50:31.916Z,18.28
2022-10-13T09:53:21.105Z,18.32
2022-10-13T09:55:49.499Z,18.37
2022-10-13T09:58:23.049Z,18.41
2022-10-13T10:00:51.454Z,18.46
2022-10-13T10:03:32.527Z,18.50
2022-10-13T10:06:07.092Z,18.56
2022-10-13T10:09:09.165Z,18.61
2022-10-13T10:11:44.344Z,18.66
2022-10-13T10:14:24.886Z,18.72
2022-10-13T10:17:23.107Z,18.77
2022-10-13T10:20:26.739Z,18.86
2022-10-13T10:23:03.602Z,18.92
2022-10-13T10:25:33.311Z,18.98
2022-10-13T10:28:41.545Z,19.05
2022-10-13T10:31:26.794Z,19.11
2022-10-13T10:34:18.364Z,19.16
2022-10-13T10:37:22.707Z,19.20
2022-10-13T10:40:12.854Z,19.26
2022-10-13T10:43:21.683Z,19.31
2022-10-13T10:45:49.348Z,19.38
2022-10-13T10:48:23.986Z,19.40
2022-10-13T10:50:51.841Z,19.45
2022-10-13T10:53:18.511Z,19.50
2022-10-13T10:55:54.403Z,19.52
2022-10-13T10:58:44.341Z,19.53
2022-10-13T11:01:10.978Z,19.54
2022-10-13T11:03:42.613Z,19.55
2022-10-13T11:06:12.393Z,19.56
2022-10-13T11:08:41.818Z,19.56
2022-10-13T11:11:25.065Z,19.55
2022-10-13T11:14:22.883Z,19.54
2022-10-13T11:17:08.864Z,19.54
2022-10-13T11:19:39.961Z,19.54
2022-10-13T11:22:06.620Z,19.56
2022-10-13T11:24:33.230Z,19.57
2022-10-13T11:27:10.541Z,19.58
2022-10-13T11:29:43.282Z,19.60
2022-10-13T11:32:25.617Z,19.62
2022-10-13T11:35:00.091Z,19.67
2022-10-13T11:37:34.905Z,19.73
2022-10-13T11:40:39.022Z,19.79
2022-10-13T11:43:47.402Z,19.83
2022-10-13T11:46:41.961Z,19.87
2022-10-13T11:49:18.064Z,19.91
2022-10-13T11:52:09.655Z,19.95
2022-10-13T11:54:45.030Z,19.99
2022-10-13T11:57:24.388Z,20.03
2022-10-13T11:59:55.388Z,20.05
2022-10-13T12:02:26.877Z,20.10
2022-10-13T12:05:07.130Z,20.13
2022-10-13T12:07:37.359Z,20.17
2022-10-13T12:10:07.931Z,20.20
2022-10-13T12:12:34.771Z,20.24
2022-10-13T12:15:05.939Z,20.30
2022-10-13T12:17:38.823Z,20.37
2022-10-13T12:20:23.515Z,20.44
2022-10-13T12:22:51.056Z,20.50
2022-10-13T12:25:19.986Z,20.54
2022-10-13T12:27:55.160Z,20.60
2022-10-13T12:30:27.784Z,20.66
2022-10-13T12:32:57.084Z,20.69
2022-10-13T12:35:29.721Z,20.73
2022-10-13T12:37:57.404Z,20.76
2022-10-13T12:40:30.671Z,20.79
2022-10-13T12:42:57.496Z,20.81
2022-10-13T12:45:27.819Z,20.82
2022-10-13T12:47:54.782Z,20.83
2022-10-13T12:50:27.963Z,20.84
2022-10-13T12:53:17.960Z,20.83
2022-10-13T12:55:59.189Z,20.82
2022-10-13T12:58:35.768Z,20.83
2022-10-13T13:01:14.495Z,20.84
2022-10-13T13:03:42.901Z,20.86
2022-10-13T13:06:15.705Z,20.87
2022-10-13T13:08:43.289Z,20.87
2022-10-13T13:11:24.895Z,20.90
2022-10-13T13:13:51.626Z,20.91
2022-10-13T13:16:23.242Z,20.92
2022-10-13T13:18:50.884Z,20.93
2022-10-13T13:21:19.561Z,20.91
2022-10-13T13:23:51.215Z,20.89
2022-10-13T13:26:24.110Z,20.88
2022-10-13T13:28:52.614Z,20.86
2022-10-13T13:31:21.302Z,20.85
2022-10-13T13:33:48.670Z,20.82
2022-10-13T13:36:18.362Z,20.80
2022-10-13T13:38:45.252Z,20.78
2022-10-13T13:41:12.612Z,20.77
2022-10-13T13:43:39.455Z,20.77
2022-10-13T13:46:07.483Z,20.78
2022-10-13T13:48:34.189Z,20.77
2022-10-13T13:51:00.937Z,20.79
2022-10-13T13:53:27.655Z,20.78
2022-10-13T13:55:54.447Z,20.81
2022-10-13T13:58:21.345Z,20.81
2022-10-13T14:00:48.118Z,20.81
2022-10-13T14:03:19.258Z,20.80
2022-10-13T14:05:46.273Z,20.79
2022-10-13T14:08:13.025Z,20.80
2022-10-13T14:10:40.933Z,20.78
2022-10-13T14:13:07.668Z,20.75
2022-10-13T14:15:34.481Z,20.75
2022-10-13T14:18:01.238Z,20.70
2022-10-13T14:20:27.953Z,20.69
2022-10-13T14:22:54.698Z,20.65
2022-10-13T14:25:21.668Z,20.65
2022-10-13T14:27:48.394Z,20.61
2022-10-13T14:30:15.104Z,20.60
2022-10-13T14:32:41.952Z,20.58
2022-10-13T14:35:08.815Z,20.56
2022-10-13T14:37:35.920Z,20.55
2022-10-13T14:40:03.106Z,20.55
2022-10-13T14:42:29.828Z,20.54
2022-10-13T14:44:56.518Z,20.53
2022-10-13T14:47:23.436Z,20.51
2022-10-13T14:49:50.320Z,20.52
2022-10-13T14:52:17.019Z,20.51
2022-10-13T14:54:45.062Z,20.52
2022-10-13T14:57:15.665Z,20.51
2022-10-13T14:59:42.962Z,20.54
2022-10-13T15:02:13.169Z,20.55
2022-10-13T15:04:40.071Z,20.55
2022-10-13T15:07:07.580Z,20.54
2022-10-13T15:09:45.488Z,20.54
2022-10-13T15:12:19.595Z,20.53
2022-10-13T15:14:46.531Z,20.50
2022-10-13T15:17:13.260Z,20.50
2022-10-13T15:19:39.962Z,20.47
2022-10-13T15:22:06.687Z,20.46
2022-10-13T15:24:33.385Z,20.43
2022-10-13T15:27:00.091Z,20.40
2022-10-13T15:29:26.910Z,20.39
2022-10-13T15:32:07.338Z,20.36
2022-10-13T15:34:34.099Z,20.34
2022-10-13T15:37:00.784Z,20.31
2022-10-13T15:39:27.504Z,20.30
2022-10-13T15:41:54.257Z,20.26
2022-10-13T15:44:21.754Z,20.23
2022-10-13T15:47:06.689Z,20.21
2022-10-13T15:49:39.257Z,20.18
2022-10-13T15:52:06.205Z,20.14
2022-10-13T15:54:33.100Z,20.11
2022-10-13T15:57:00.385Z,20.10
2022-10-13T15:59:27.185Z,20.06
2022-10-13T16:01:53.915Z,20.02
2022-10-13T16:04:20.647Z,19.98
2022-10-13T16:06:47.384Z,19.91
2022-10-13T16:09:14.116Z,19.84
2022-10-13T16:11:40.910Z,19.79
2022-10-13T16:14:08.679Z,19.70
2022-10-13T16:16:35.439Z,19.63
2022-10-13T16:19:02.270Z,19.56
2022-10-13T16:21:29.003Z,19.51
2022-10-13T16:23:55.813Z,19.47
2022-10-13T16:26:22.581Z,19.41
2022-10-13T16:28:49.419Z,19.36
2022-10-13T16:31:17.155Z,19.33
2022-10-13T16:33:45.081Z,19.29
2022-10-13T16:36:14.357Z,19.27
2022-10-13T16:38:42.076Z,19.23
2022-10-13T16:41:12.209Z,19.19
2022-10-13T16:43:39.096Z,19.18
2022-10-13T16:46:08.187Z,19.15
2022-10-13T16:48:34.908Z,19.12
2022-10-13T16:51:06.784Z,19.09
2022-10-13T16:53:34.217Z,19.06
2022-10-13T16:56:01.025Z,19.03
2022-10-13T16:58:27.835Z,19.01
2022-10-13T17:01:02.324Z,18.98
2022-10-13T17:03:29.090Z,18.96
2022-10-13T17:05:56.152Z,18.92
2022-10-13T17:08:22.912Z,18.88
2022-10-13T17:10:57.347Z,18.86
2022-10-13T17:13:24.969Z,18.82
2022-10-13T17:15:53.210Z,18.78
2022-10-13T17:18:20.253Z,18.75
2022-10-13T17:21:00.743Z,18.71
2022-10-13T17:23:28.348Z,18.67
2022-10-13T17:25:55.806Z,18.64
2022-10-13T17:28:22.867Z,18.60
2022-10-13T17:30:59.975Z,18.57
2022-10-13T17:33:34.312Z,18.53
2022-10-13T17:36:03.303Z,18.50
2022-10-13T17:38:30.433Z,18.47
2022-10-13T17:41:05.585Z,18.43
2022-10-13T17:43:34.479Z,18.38
2022-10-13T17:46:35.031Z,18.35
2022-10-13T17:49:00.687Z,18.30
2022-10-13T17:51:27.827Z,18.26
2022-10-13T17:53:54.931Z,18.24
2022-10-13T17:56:23.808Z,18.20
2022-10-13T17:58:51.251Z,18.17
2022-10-13T18:01:23.658Z,18.14
2022-10-13T18:03:55.951Z,18.11
2022-10-13T18:06:23.124Z,18.07
2022-10-13T18:08:52.582Z,18.03
2022-10-13T18:11:22.648Z,18.01
2022-10-13T18:13:49.435Z,17.98
2022-10-13T18:16:18.616Z,17.96
2022-10-13T18:18:46.714Z,17.93
2022-10-13T18:21:16.465Z,17.92
2022-10-13T18:23:43.866Z,17.89
2022-10-13T18:26:15.988Z,17.86
2022-10-13T18:28:43.583Z,17.86
2022-10-13T18:31:12.036Z,17.85
2022-10-13T18:33:39.270Z,17.85
2022-10-13T18:36:20.272Z,17.85
2022-10-13T18:38:47.522Z,17.83
2022-10-13T18:41:15.116Z,17.84
2022-10-13T18:43:41.825Z,17.85
2022-10-13T18:46:08.694Z,17.85
2022-10-13T18:48:35.412Z,17.85
2022-10-13T18:51:06.670Z,17.86
2022-10-13T18:53:37.976Z,17.87
2022-10-13T18:56:07.355Z,17.89
2022-10-13T18:58:34.244Z,17.90
2022-10-13T19:01:09.047Z,17.94
2022-10-13T19:03:37.109Z,17.95
2022-10-13T19:06:04.772Z,17.99
2022-10-13T19:08:31.805Z,18.02
2022-10-13T19:10:58.772Z,18.03
2022-10-13T19:13:26.469Z,18.06
2022-10-13T19:16:02.841Z,18.08
2022-10-13T19:18:29.727Z,18.08
2022-10-13T19:20:56.589Z,18.10
2022-10-13T19:23:23.316Z,18.11
2022-10-13T19:25:50.084Z,18.12
2022-10-13T19:28:17.010Z,18.14
2022-10-13T19:30:43.842Z,18.16
2022-10-13T19:33:12.509Z,18.16
2022-10-13T19:35:41.344Z,18.17
2022-10-13T19:38:08.528Z,18.19
2022-10-13T19:40:40.059Z,18.20
2022-10-13T19:43:09.655Z,18.20
2022-10-13T19:45:36.703Z,18.21
2022-10-13T19:48:03.502Z,18.21
2022-10-13T19:50:35.890Z,18.22
2022-10-13T19:53:02.614Z,18.22
2022-10-13T19:55:30.473Z,18.21
2022-10-13T19:57:57.152Z,18.21
2022-10-13T20:00:23.903Z,18.22
2022-10-13T20:02:50.675Z,18.22
2022-10-13T20:05:19.922Z,18.22
2022-10-13T20:07:49.982Z,18.22
2022-10-13T20:10:16.794Z,18.22
2022-10-13T20:12:43.492Z,18.22
2022-10-13T20:15:11.098Z,18.22
2022-10-13T20:17:37.839Z,18.21
2022-10-13T20:20:06.003Z,18.22
2022-10-13T20:22:33.217Z,18.22
2022-10-13T20:24:59.968Z,18.22
2022-10-13T20:27:26.705Z,18.20
2022-10-13T20:29:53.429Z,18.20
2022-10-13T20:32:20.119Z,18.21
2022-10-13T20:34:46.817Z,18.19
2022-10-13T20:37:13.577Z,18.20
2022-10-13T20:39:40.938Z,18.18
2022-10-13T20:42:07.650Z,18.16
2022-10-13T20:44:34.365Z,18.13
2022-10-13T20:47:01.106Z,18.08
2022-10-13T20:49:27.830Z,18.04
2022-10-13T20:51:54.558Z,18.01
2022-10-13T20:54:21.258Z,17.98
2022-10-13T20:56:48.356Z,17.94
2022-10-13T20:59:15.175Z,17.90
2022-10-13T21:01:42.230Z,17.88
2022-10-13T21:04:09.080Z,17.85
2022-10-13T21:06:36.043Z,17.82
2022-10-13T21:09:04.280Z,17.79
2022-10-13T21:11:31.144Z,17.78
2022-10-13T21:13:57.881Z,17.76
2022-10-13T21:16:29.378Z,17.76
2022-10-13T21:18:57.068Z,17.73
2022-10-13T21:21:26.432Z,17.72
2022-10-13T21:23:55.251Z,17.71
2022-10-13T21:26:22.835Z,17.69
2022-10-13T21:28:50.287Z,17.67
2022-10-13T21:31:18.599Z,17.67
2022-10-13T21:33:45.286Z,17.65
2022-10-13T21:36:18.308Z,17.66
2022-10-13T21:38:45.870Z,17.63
2022-10-13T21:41:13.463Z,17.62
2022-10-13T21:43:40.448Z,17.61
2022-10-13T21:46:19.116Z,17.60
2022-10-13T21:48:47.150Z,17.59
2022-10-13T21:51:15.296Z,17.59
2022-10-13T21:53:42.271Z,17.58
2022-10-13T21:56:11.458Z,17.58
2022-10-13T21:58:38.378Z,17.56
2022-10-13T22:01:06.140Z,17.55
2022-10-13T22:03:33.484Z,17.56
2022-10-13T22:06:05.663Z,17.54
2022-10-13T22:08:38.351Z,17.54
2022-10-13T22:11:07.163Z,17.53
2022-10-13T22:13:34.056Z,17.52
2022-10-13T22:16:11.872Z,17.52
2022-10-13T22:18:38.580Z,17.50
2022-10-13T22:21:07.346Z,17.51
2022-10-13T22:23:34.081Z,17.50
2022-10-13T22:26:00.801Z,17.50
2022-10-13T22:28:27.597Z,17.51
2022-10-13T22:30:54.370Z,17.50
2022-10-13T22:33:21.080Z,17.51
2022-10-13T22:35:47.805Z,17.48
2022-10-13T22:38:14.629Z,17.48
2022-10-13T22:40:41.745Z,17.49
2022-10-13T22:43:08.515Z,17.47
2022-10-13T22:45:35.344Z,17.46
2022-10-13T22:48:02.241Z,17.47
2022-10-13T22:50:29.293Z,17.46
2022-10-13T22:52:56.425Z,17.47
2022-10-13T22:55:23.118Z,17.46
2022-10-13T22:57:49.839Z,17.46
2022-10-13T23:00:16.600Z,17.46
2022-10-13T23:02:43.316Z,17.45
2022-10-13T23:05:10.010Z,17.45
2022-10-13T23:07:36.739Z,17.45
2022-10-13T23:10:03.764Z,17.44
2022-10-13T23:12:30.497Z,17.45
2022-10-13T23:14:57.232Z,17.44
2022-10-13T23:17:24.245Z,17.44
2022-10-13T23:19:51.158Z,17.44
2022-10-13T23:22:17.861Z,17.44
2022-10-13T23:24:44.562Z,17.46
2022-10-13T23:27:11.285Z,17.47
2022-10-13T23:29:37.987Z,17.46
2022-10-13T23:32:09.571Z,17.44
2022-10-13T23:34:36.699Z,17.42
2022-10-13T23:37:03.423Z,17.43
2022-10-13T23:39:30.175Z,17.40
2022-10-13T23:41:57.059Z,17.38
2022-10-13T23:44:23.778Z,17.38
2022-10-13T23:46:51.041Z,17.38
2022-10-13T23:49:17.760Z,17.36
2022-10-13T23:51:44.567Z,17.35
2022-10-13T23:54:11.406Z,17.34
2022-10-13T23:56:38.657Z,17.34
2022-10-13T23:59:05.825Z,17.33
